Waterman, Pennsylvania
Current Conditions -  °F | °C
As of 2:55 AM on Wednesday 22 Oct 2014 (Local Time) from KIDI Reporting Station
Overcast Overcast  
Wind Chill: 48°   Ceiling: 1200
Heat Index: 48°   Visibility: 9mi
Dew Point: 48°   Wind: 3mph
Humidity: 100%   Direction: 10°N
Pressure: 30.03"   Gusts: NA
Location:  40.5413°N, 79.1838°W
Report Text: KIDI 220655Z AUTO 01003KT 9SM SCT006 BKN012 OVC029 09/09 A3003 RMK A01
Loading
Personal Weather Stations






























Interactive Weather Map New forecast layout! Learn more

10-Day Weather Forecast

Advertisements
Track Severe Weather on mobile